Time;durP1;ratioP1;P1;durP2;ratioP2;P2;SDS_P1;SDS_P2;PMS_P1;PMS_P2;Temp;Humidity;BMP_temperature;BMP_pressure;BME280_temperature;BME280_humidity;BME280_pressure;Samples;Min_cycle;Max_cycle;Signal;HPM_P1;HPM_P2
2023/08/06 10:16:38;;;;;;;0.52;0.40;;;16.00;92.90;;;;;;5006832;28;20187;-59
2023/08/06 10:19:08;;;;;;;0.80;0.30;;;15.70;94.60;;;;;;5006293;28;20053;-44
2023/08/06 10:21:35;;;;;;;2.10;0.40;;;15.80;94.90;;;;;;5021315;28;20064;-52
2023/08/06 10:24:03;;;;;;;1.38;0.38;;;16.00;94.50;;;;;;5020728;28;20390;-58
2023/08/06 10:26:30;;;;;;;0.32;0.30;;;16.20;93.70;;;;;;5019580;28;20049;-55
2023/08/06 10:28:58;;;;;;;0.30;0.30;;;16.50;92.90;;;;;;5020115;28;20041;-56
2023/08/06 10:31:59;;;;;;;0.22;0.17;;;16.70;91.80;;;;;;5020430;28;20053;-57
2023/08/06 10:34:56;;;;;;;1.13;0.17;;;16.90;90.60;;;;;;5020492;28;20068;-47
2023/08/06 10:37:24;;;;;;;0.32;0.20;;;17.00;88.40;;;;;;5021165;28;21267;-51
2023/08/06 10:39:52;;;;;;;2.92;0.32;;;17.10;87.60;;;;;;5019180;28;20053;-46
2023/08/06 10:42:23;;;;;;;1.00;0.30;;;17.20;86.30;;;;;;5018513;28;20528;-59
2023/08/06 10:45:12;;;;;;;0.82;0.30;;;17.30;85.20;;;;;;5021676;28;20052;-53
2023/08/06 10:47:40;;;;;;;3.95;0.70;;;17.40;84.60;;;;;;5022170;28;20065;-57
2023/08/06 10:50:09;;;;;;;1.17;0.40;;;17.40;83.90;;;;;;5019367;28;20053;-54
2023/08/06 10:52:36;;;;;;;1.85;0.85;;;17.40;82.40;;;;;;5021537;28;20076;-52
2023/08/06 10:55:04;;;;;;;2.10;0.80;;;17.40;82.20;;;;;;5020778;28;20064;-56
2023/08/06 10:57:31;;;;;;;6.28;0.98;;;17.40;80.60;;;;;;5019402;28;20068;-56
2023/08/06 10:59:59;;;;;;;3.20;0.93;;;17.30;79.90;;;;;;5019410;28;20111;-48
2023/08/06 11:02:26;;;;;;;1.85;1.10;;;17.30;79.80;;;;;;5019222;28;20057;-55
2023/08/06 11:04:55;;;;;;;3.53;1.25;;;17.30;79.40;;;;;;5000396;28;20053;-51
2023/08/06 11:07:23;;;;;;;3.80;1.50;;;17.20;78.70;;;;;;4999918;28;20057;-55
2023/08/06 11:09:53;;;;;;;4.28;1.70;;;17.10;78.30;;;;;;5000946;28;20053;-58
2023/08/06 11:12:20;;;;;;;4.10;1.30;;;17.00;78.50;;;;;;4999276;28;20056;-43
2023/08/06 11:14:51;;;;;;;6.22;1.85;;;17.00;79.20;;;;;;5004630;28;20058;-57
2023/08/06 11:17:18;;;;;;;3.38;1.42;;;17.00;79.90;;;;;;5019056;28;20049;-44
2023/08/06 11:19:46;;;;;;;3.53;1.30;;;16.90;79.20;;;;;;5020109;28;20540;-41
2023/08/06 11:22:15;;;;;;;2.50;1.40;;;16.90;79.80;;;;;;5018778;28;20053;-52
2023/08/06 11:24:42;;;;;;;2.72;1.10;;;16.80;79.30;;;;;;5020660;28;20409;-42
2023/08/06 11:27:14;;;;;;;4.80;1.88;;;16.80;79.00;;;;;;5010099;28;20049;-60
2023/08/06 11:29:41;;;;;;;4.28;1.60;;;16.70;79.80;;;;;;5006473;28;20053;-60
2023/08/06 11:32:09;;;;;;;4.80;1.65;;;16.60;79.60;;;;;;5006261;28;20053;-59
2023/08/06 11:34:36;;;;;;;3.53;1.23;;;16.60;79.70;;;;;;5006704;28;20068;-56
2023/08/06 11:37:05;;;;;;;4.68;1.38;;;16.60;80.30;;;;;;5006162;28;20053;-43
2023/08/06 11:39:34;;;;;;;2.63;0.90;;;16.60;80.70;;;;;;5000524;28;20065;-52
2023/08/06 11:42:03;;;;;;;4.82;1.40;;;16.50;80.80;;;;;;5004617;28;20050;-50
2023/08/06 11:44:33;;;;;;;6.28;1.58;;;16.50;80.20;;;;;;5006839;28;20080;-57
2023/08/06 11:47:02;;;;;;;4.25;1.33;;;16.50;80.50;;;;;;5005911;28;20421;-50
2023/08/06 11:49:40;;;;;;;3.75;1.17;;;16.50;80.40;;;;;;5006220;28;20061;-59
2023/08/06 11:52:12;;;;;;;4.15;1.23;;;16.50;80.90;;;;;;5006014;28;20068;-51
2023/08/06 11:54:40;;;;;;;6.25;1.20;;;16.50;80.90;;;;;;5006141;28;20498;-50
2023/08/06 11:57:08;;;;;;;6.60;1.48;;;16.50;81.10;;;;;;5004977;28;20394;-58
2023/08/06 11:59:35;;;;;;;3.47;1.08;;;16.50;81.30;;;;;;5005926;28;20053;-54
2023/08/06 12:02:05;;;;;;;5.25;2.03;;;16.50;81.30;;;;;;5007110;28;20061;-55
2023/08/06 12:04:32;;;;;;;3.58;1.17;;;16.50;81.80;;;;;;5006454;28;20064;-51
2023/08/06 12:07:07;;;;;;;9.93;1.60;;;16.50;81.80;;;;;;5006128;28;20045;-56
2023/08/06 12:09:36;;;;;;;7.60;1.25;;;16.50;82.20;;;;;;5005993;28;20095;-58
2023/08/06 12:12:05;;;;;;;4.20;1.45;;;16.50;82.20;;;;;;5005866;28;20050;-57
2023/08/06 12:14:32;;;;;;;5.15;1.27;;;16.50;82.50;;;;;;5005726;28;20422;-53
2023/08/06 12:17:00;;;;;;;5.78;1.42;;;16.50;82.10;;;;;;5007295;28;20054;-57
2023/08/06 12:19:27;;;;;;;5.75;1.52;;;16.60;82.40;;;;;;5006958;28;20069;-55
2023/08/06 12:21:54;;;;;;;2.75;1.02;;;16.60;82.60;;;;;;5005388;28;20416;-55
2023/08/06 12:24:22;;;;;;;8.02;1.92;;;16.60;82.70;;;;;;5006084;28;20085;-55
2023/08/06 12:26:49;;;;;;;5.78;1.58;;;16.60;82.50;;;;;;5005016;28;20065;-63
2023/08/06 12:29:18;;;;;;;3.90;1.25;;;16.70;82.40;;;;;;5005214;28;20053;-58
2023/08/06 12:31:45;;;;;;;7.10;1.52;;;16.70;82.50;;;;;;5006362;28;20056;-43
2023/08/06 12:34:12;;;;;;;5.47;1.60;;;16.70;82.30;;;;;;5006344;28;20076;-51
2023/08/06 12:36:39;;;;;;;6.25;1.45;;;16.70;82.10;;;;;;5004386;28;20599;-54
2023/08/06 12:39:07;;;;;;;3.90;1.42;;;16.80;82.30;;;;;;5005186;28;20054;-59
2023/08/06 12:41:34;;;;;;;3.70;1.20;;;16.70;82.30;;;;;;5003257;28;20057;-57
2023/08/06 12:44:01;;;;;;;5.32;1.40;;;16.80;82.40;;;;;;5006272;28;20060;-58
2023/08/06 12:46:30;;;;;;;4.95;1.10;;;16.80;82.30;;;;;;5005469;28;20421;-57
2023/08/06 12:48:57;;;;;;;3.92;1.58;;;16.80;81.80;;;;;;5007817;28;20050;-58
2023/08/06 12:51:24;;;;;;;4.07;1.30;;;16.80;81.60;;;;;;5005757;28;20560;-50
2023/08/06 12:53:51;;;;;;;5.45;1.63;;;16.80;81.80;;;;;;5007622;28;20056;-55
2023/08/06 12:56:19;;;;;;;5.10;1.40;;;16.90;81.60;;;;;;5002865;28;20528;-49
2023/08/06 12:58:46;;;;;;;4.07;0.98;;;16.80;81.40;;;;;;5006356;28;20069;-57
2023/08/06 13:01:13;;;;;;;4.63;1.42;;;16.90;81.70;;;;;;5004610;28;20042;-49
2023/08/06 13:03:42;;;;;;;1.92;0.90;;;16.90;81.90;;;;;;5005742;28;20057;-56
2023/08/06 13:06:09;;;;;;;4.68;1.10;;;16.90;81.80;;;;;;5003785;28;20058;-54
2023/08/06 13:08:37;;;;;;;4.32;1.75;;;16.90;81.80;;;;;;5005044;28;20068;-53
2023/08/06 13:11:04;;;;;;;4.57;0.90;;;16.90;81.70;;;;;;5003457;28;20502;-56
2023/08/06 13:13:32;;;;;;;2.65;0.95;;;17.00;82.10;;;;;;5004046;28;20061;-58
2023/08/06 13:15:59;;;;;;;2.80;0.93;;;17.00;82.10;;;;;;5005198;28;20057;-49
2023/08/06 13:18:27;;;;;;;3.08;0.77;;;17.00;81.70;;;;;;5004989;28;20405;-57
2023/08/06 13:20:56;;;;;;;2.85;0.88;;;17.10;81.60;;;;;;5004288;28;20556;-50
2023/08/06 13:23:23;;;;;;;1.40;0.50;;;17.10;81.50;;;;;;5003120;28;20058;-63
2023/08/06 13:25:50;;;;;;;1.20;0.70;;;17.10;81.30;;;;;;5003520;28;20053;-57
2023/08/06 13:28:17;;;;;;;2.05;0.65;;;17.10;81.20;;;;;;5003178;28;20054;-57
2023/08/06 13:30:45;;;;;;;1.27;0.50;;;17.10;81.30;;;;;;5004253;28;20080;-59
2023/08/06 13:33:12;;;;;;;2.47;0.57;;;17.20;81.30;;;;;;5003352;28;20501;-57
2023/08/06 13:35:40;;;;;;;2.22;0.45;;;17.20;81.20;;;;;;5003537;28;20556;-57
2023/08/06 13:38:08;;;;;;;0.63;0.40;;;17.20;81.40;;;;;;5003924;28;20045;-59
2023/08/06 13:40:36;;;;;;;1.63;0.55;;;17.30;81.20;;;;;;5003735;28;20058;-52
2023/08/06 13:43:04;;;;;;;1.42;0.50;;;17.30;81.00;;;;;;5003487;28;20054;-59
2023/08/06 13:45:34;;;;;;;3.88;1.30;;;17.30;80.90;;;;;;5005812;28;20072;-58
2023/08/06 13:48:01;;;;;;;3.17;0.90;;;17.30;80.90;;;;;;5004359;28;20402;-58
2023/08/06 13:50:28;;;;;;;2.67;0.90;;;17.30;80.70;;;;;;5003410;28;20054;-59
2023/08/06 13:52:56;;;;;;;2.70;0.77;;;17.40;80.60;;;;;;5003501;28;20061;-59
2023/08/06 13:55:25;;;;;;;3.45;0.90;;;17.40;80.50;;;;;;5004157;28;20064;-60
2023/08/06 13:57:52;;;;;;;3.75;1.13;;;17.40;80.30;;;;;;5003093;28;20046;-62
2023/08/06 14:00:19;;;;;;;1.58;1.00;;;17.40;79.70;;;;;;5003494;28;20502;-56
2023/08/06 14:02:47;;;;;;;3.50;1.20;;;17.50;79.10;;;;;;5002693;28;20061;-56
2023/08/06 14:05:14;;;;;;;4.10;1.42;;;17.40;78.60;;;;;;5004478;28;20049;-59
2023/08/06 14:07:41;;;;;;;3.47;1.55;;;17.40;78.40;;;;;;5002847;28;20519;-60
2023/08/06 14:10:09;;;;;;;3.72;1.45;;;17.40;78.20;;;;;;5004653;28;20053;-58
2023/08/06 14:12:38;;;;;;;4.20;1.48;;;17.40;78.30;;;;;;5003105;28;20402;-56
2023/08/06 14:15:06;;;;;;;6.45;1.50;;;17.40;78.70;;;;;;5002433;28;20088;-59
2023/08/06 14:17:33;;;;;;;4.95;1.30;;;17.40;79.10;;;;;;5004908;28;20473;-59
2023/08/06 14:20:02;;;;;;;3.83;1.35;;;17.40;79.30;;;;;;5003134;28;20056;-56
2023/08/06 14:22:31;;;;;;;2.75;1.40;;;17.40;79.20;;;;;;5003147;28;20065;-58
2023/08/06 14:24:58;;;;;;;3.60;1.13;;;17.40;79.40;;;;;;5004710;28;20391;-58
2023/08/06 14:27:25;;;;;;;2.25;1.40;;;17.40;79.80;;;;;;5003523;28;20060;-55
2023/08/06 14:29:54;;;;;;;4.78;1.17;;;17.40;79.50;;;;;;5003964;28;20054;-58
2023/08/06 14:32:21;;;;;;;4.63;1.67;;;17.40;79.00;;;;;;5003636;28;20050;-60
2023/08/06 14:34:49;;;;;;;4.05;1.45;;;17.40;78.60;;;;;;5004858;28;20057;-60
2023/08/06 14:37:16;;;;;;;3.88;1.33;;;17.40;78.40;;;;;;5001604;28;20050;-43
2023/08/06 14:39:43;;;;;;;5.38;1.10;;;17.40;78.40;;;;;;5003354;28;20041;-58
2023/08/06 14:42:11;;;;;;;3.20;1.20;;;17.40;78.50;;;;;;5001342;28;20762;-58
2023/08/06 14:44:38;;;;;;;8.68;1.13;;;17.50;78.50;;;;;;5004501;28;20054;-57
2023/08/06 14:47:06;;;;;;;2.80;0.95;;;17.40;78.50;;;;;;5004213;28;20402;-59
2023/08/06 14:49:34;;;;;;;1.52;1.00;;;17.50;78.50;;;;;;5003211;28;20057;-47
2023/08/06 14:52:01;;;;;;;4.47;1.10;;;17.50;78.50;;;;;;5002710;28;20058;-58
2023/08/06 14:54:29;;;;;;;3.85;1.02;;;17.50;78.10;;;;;;5003466;28;20050;-59
2023/08/06 14:56:56;;;;;;;4.07;0.95;;;17.50;78.00;;;;;;5002430;28;20405;-61
2023/08/06 14:59:23;;;;;;;2.17;0.75;;;17.50;78.20;;;;;;5004454;28;20490;-50
2023/08/06 15:01:51;;;;;;;2.58;0.70;;;17.60;78.20;;;;;;5005241;28;20061;-53
2023/08/06 15:04:20;;;;;;;2.90;0.73;;;17.60;78.10;;;;;;5007952;28;20061;-56
2023/08/06 15:06:47;;;;;;;2.35;0.75;;;17.70;78.00;;;;;;5007746;28;20056;-57
2023/08/06 15:09:14;;;;;;;1.73;0.80;;;17.70;78.10;;;;;;5008608;28;20497;-57
2023/08/06 15:11:41;;;;;;;8.13;0.80;;;17.70;77.10;;;;;;5005436;28;20054;-59
2023/08/06 15:14:09;;;;;;;2.65;0.52;;;17.70;76.30;;;;;;5005816;28;20068;-61
2023/08/06 15:16:36;;;;;;;5.70;0.85;;;17.70;76.20;;;;;;5007633;28;20050;-58
2023/08/06 15:19:03;;;;;;;2.92;0.75;;;17.60;75.70;;;;;;5005891;28;20056;-49
2023/08/06 15:21:32;;;;;;;3.00;0.85;;;17.70;75.80;;;;;;5006887;28;20525;-59
2023/08/06 15:23:59;;;;;;;2.50;0.60;;;17.60;75.90;;;;;;5006823;28;20703;-59
2023/08/06 15:26:26;;;;;;;1.25;0.47;;;17.60;75.80;;;;;;5007388;28;20054;-58
2023/08/06 15:28:54;;;;;;;0.88;0.43;;;17.70;76.20;;;;;;5006283;28;20061;-56
2023/08/06 15:31:22;;;;;;;1.13;0.20;;;17.70;76.10;;;;;;5007848;28;20829;-46
2023/08/06 15:33:49;;;;;;;0.80;0.25;;;17.70;75.80;;;;;;5007692;28;20049;-60
2023/08/06 15:36:16;;;;;;;1.45;0.22;;;17.70;75.80;;;;;;5005910;28;20053;-59
2023/08/06 15:38:45;;;;;;;0.20;0.20;;;17.70;75.80;;;;;;5006019;28;20046;-47
2023/08/06 15:41:12;;;;;;;0.25;0.20;;;17.70;75.80;;;;;;5006177;28;20056;-55
2023/08/06 15:43:41;;;;;;;0.30;0.20;;;17.80;75.30;;;;;;5004958;28;20795;-45
2023/08/06 15:46:08;;;;;;;2.30;0.10;;;17.70;74.90;;;;;;5007067;28;20046;-61
2023/08/06 15:48:35;;;;;;;0.20;0.20;;;17.70;74.80;;;;;;5007733;28;20500;-43
2023/08/06 15:51:03;;;;;;;0.70;0.20;;;17.70;74.50;;;;;;5006229;28;20049;-59
2023/08/06 15:53:31;;;;;;;1.08;0.20;;;17.70;74.30;;;;;;5007251;28;20054;-60
2023/08/06 15:56:00;;;;;;;2.33;0.20;;;17.70;74.20;;;;;;5006457;28;20057;-60
2023/08/06 15:58:27;;;;;;;3.08;0.40;;;17.70;74.50;;;;;;5006015;28;20065;-61
2023/08/06 16:00:54;;;;;;;1.35;0.38;;;17.60;74.30;;;;;;5006490;28;20057;-55
2023/08/06 16:03:21;;;;;;;1.98;0.30;;;17.60;74.20;;;;;;5005495;28;20425;-59
2023/08/06 16:05:49;;;;;;;3.10;0.68;;;17.70;74.20;;;;;;5005014;28;20050;-49
2023/08/06 16:08:16;;;;;;;2.05;0.40;;;17.60;74.40;;;;;;5006975;28;20045;-60
2023/08/06 16:10:44;;;;;;;3.13;0.63;;;17.60;74.10;;;;;;5005237;28;20057;-57
2023/08/06 16:13:13;;;;;;;1.17;0.50;;;17.60;74.00;;;;;;5004481;28;20058;-47
2023/08/06 16:15:40;;;;;;;1.80;0.57;;;17.60;74.10;;;;;;5005127;28;20066;-56
2023/08/06 16:18:08;;;;;;;1.60;0.60;;;17.70;74.00;;;;;;5006345;28;20052;-47
2023/08/06 16:20:35;;;;;;;1.15;0.55;;;17.70;74.30;;;;;;5007221;28;20073;-57
2023/08/06 16:23:02;;;;;;;1.98;0.70;;;17.70;74.20;;;;;;5005414;28;20528;-49
2023/08/06 16:25:30;;;;;;;1.63;0.70;;;17.70;74.10;;;;;;5004989;28;20076;-58
2023/08/06 16:27:57;;;;;;;1.67;0.52;;;17.70;74.00;;;;;;5004168;28;20049;-54
2023/08/06 16:30:26;;;;;;;2.63;0.55;;;17.70;74.00;;;;;;5005510;28;20084;-48
2023/08/06 16:32:53;;;;;;;2.28;0.63;;;17.70;73.90;;;;;;5006542;28;20053;-44
2023/08/06 16:35:22;;;;;;;4.47;0.70;;;17.70;74.00;;;;;;5006273;28;20405;-59
2023/08/06 16:37:49;;;;;;;1.88;0.68;;;17.70;73.70;;;;;;5005629;28;20111;-63
2023/08/06 16:40:17;;;;;;;1.92;0.40;;;17.70;73.40;;;;;;5005133;28;20049;-54
2023/08/06 16:42:44;;;;;;;1.40;0.52;;;17.70;73.30;;;;;;5004223;28;20520;-51
2023/08/06 16:45:11;;;;;;;1.65;0.55;;;17.70;73.00;;;;;;5004283;28;20050;-57
2023/08/06 16:47:40;;;;;;;4.57;0.90;;;17.70;73.10;;;;;;5006157;28;20049;-46
2023/08/06 16:50:08;;;;;;;3.67;0.90;;;17.70;73.20;;;;;;5005528;28;20422;-59
2023/08/06 16:52:35;;;;;;;1.58;0.50;;;17.70;73.40;;;;;;5005107;28;20050;-58
2023/08/06 16:55:02;;;;;;;2.45;1.10;;;17.70;72.90;;;;;;5004802;28;20050;-50
2023/08/06 16:57:30;;;;;;;1.38;0.82;;;17.70;72.80;;;;;;5004121;28;20056;-59
2023/08/06 16:59:57;;;;;;;4.75;0.98;;;17.70;72.90;;;;;;5004759;28;20532;-56
2023/08/06 17:02:24;;;;;;;4.20;0.90;;;17.60;72.80;;;;;;5005603;28;20062;-57
2023/08/06 17:04:53;;;;;;;4.13;0.80;;;17.60;72.90;;;;;;5005048;28;20387;-47
2023/08/06 17:07:20;;;;;;;3.03;0.80;;;17.60;73.10;;;;;;5004910;28;20421;-49
2023/08/06 17:09:47;;;;;;;2.60;0.88;;;17.60;73.10;;;;;;5004170;28;20050;-48
2023/08/06 17:12:19;;;;;;;3.90;1.08;;;17.50;73.30;;;;;;5002536;28;20057;-54
2023/08/06 17:14:47;;;;;;;2.97;1.00;;;17.50;72.80;;;;;;5004503;28;20513;-59
2023/08/06 17:17:14;;;;;;;10.73;1.83;;;17.50;72.90;;;;;;5005110;28;20076;-58
2023/08/06 17:19:43;;;;;;;3.15;0.90;;;17.50;73.10;;;;;;5003596;28;20046;-54
2023/08/06 17:22:11;;;;;;;1.73;0.90;;;17.40;73.10;;;;;;5004904;28;20054;-56
2023/08/06 17:24:39;;;;;;;3.45;0.90;;;17.40;73.20;;;;;;5005536;28;20060;-58
2023/08/06 17:27:07;;;;;;;2.60;1.02;;;17.40;73.20;;;;;;5003316;28;20517;-57
2023/08/06 17:29:34;;;;;;;3.17;1.00;;;17.30;73.50;;;;;;5005590;28;20061;-59
2023/08/06 17:32:01;;;;;;;5.22;1.10;;;17.30;73.70;;;;;;5003782;28;20061;-57
2023/08/06 17:34:29;;;;;;;8.23;1.17;;;17.20;73.90;;;;;;5003858;28;20501;-55
2023/08/06 17:36:56;;;;;;;3.35;0.90;;;17.20;74.20;;;;;;5004659;28;20072;-44
2023/08/06 17:39:25;;;;;;;2.95;0.70;;;17.10;74.80;;;;;;5004650;28;20418;-54
2023/08/06 17:41:52;;;;;;;2.97;0.88;;;17.10;75.30;;;;;;5003974;28;20062;-60
2023/08/06 17:44:19;;;;;;;3.35;1.15;;;17.10;75.60;;;;;;5003089;28;20058;-45
2023/08/06 17:46:47;;;;;;;4.57;0.90;;;17.00;75.70;;;;;;5004089;28;20054;-48
2023/08/06 17:49:14;;;;;;;1.83;0.90;;;17.00;76.10;;;;;;5004364;28;20046;-59
2023/08/06 17:51:41;;;;;;;2.15;1.10;;;17.00;76.40;;;;;;5003698;28;20060;-48
2023/08/06 17:54:09;;;;;;;2.33;0.80;;;17.00;76.40;;;;;;5003826;28;20057;-56
2023/08/06 17:56:37;;;;;;;1.77;0.70;;;17.00;76.60;;;;;;5003436;28;20057;-60
2023/08/06 17:59:05;;;;;;;1.35;0.70;;;17.00;76.60;;;;;;5005075;28;20485;-60
2023/08/06 18:01:32;;;;;;;2.95;0.85;;;17.00;76.40;;;;;;5004313;28;20072;-49
2023/08/06 18:04:00;;;;;;;1.65;0.80;;;17.00;76.60;;;;;;5005079;28;20053;-54
2023/08/06 18:06:27;;;;;;;2.08;0.82;;;16.90;76.50;;;;;;5003476;28;20163;-59
2023/08/06 18:08:54;;;;;;;2.80;0.98;;;16.90;76.60;;;;;;5004714;28;20049;-46
2023/08/06 18:11:22;;;;;;;2.88;1.30;;;16.90;77.10;;;;;;5003142;28;20485;-55
2023/08/06 18:13:50;;;;;;;3.38;0.80;;;16.90;77.40;;;;;;5005873;28;20058;-46
2023/08/06 18:16:18;;;;;;;5.30;0.88;;;16.80;77.70;;;;;;5004585;28;20057;-50
2023/08/06 18:18:45;;;;;;;1.60;0.80;;;16.80;77.80;;;;;;5004658;28;20696;-57
2023/08/06 18:21:12;;;;;;;1.40;0.73;;;16.80;78.20;;;;;;5004264;28;20054;-58
2023/08/06 18:23:40;;;;;;;1.13;0.70;;;16.70;78.60;;;;;;5004160;28;20148;-54
2023/08/06 18:26:07;;;;;;;2.30;1.10;;;16.70;78.90;;;;;;5003617;28;20061;-59
2023/08/06 18:28:34;;;;;;;2.47;1.60;;;16.70;79.30;;;;;;5002608;28;20057;-46
2023/08/06 18:31:03;;;;;;;5.20;1.75;;;16.70;79.70;;;;;;5003598;28;20046;-57
2023/08/06 18:33:32;;;;;;;3.72;1.45;;;16.70;80.10;;;;;;5003975;28;20494;-59
2023/08/06 18:35:59;;;;;;;2.10;1.50;;;16.60;80.20;;;;;;5002952;28;20494;-58
2023/08/06 18:38:26;;;;;;;4.75;1.92;;;16.60;80.40;;;;;;5008614;28;20439;-58
2023/08/06 18:40:57;;;;;;;3.25;1.50;;;16.60;80.50;;;;;;5008699;28;20417;-51
2023/08/06 18:43:24;;;;;;;3.17;1.40;;;16.60;80.50;;;;;;5006476;28;20439;-49
2023/08/06 18:45:52;;;;;;;2.42;1.70;;;16.60;80.60;;;;;;5008065;28;20397;-56
2023/08/06 18:48:20;;;;;;;4.65;1.70;;;16.60;80.80;;;;;;5008107;28;20054;-48
2023/08/06 18:50:48;;;;;;;1.80;1.50;;;16.60;80.70;;;;;;5007644;28;20710;-59
2023/08/06 18:53:15;;;;;;;2.65;1.48;;;16.60;80.90;;;;;;5007891;28;20068;-53
2023/08/06 18:55:48;;;;;;;2.97;1.50;;;16.60;81.10;;;;;;5009208;28;20528;-57
2023/08/06 18:58:15;;;;;;;3.47;1.70;;;16.50;81.10;;;;;;5006139;28;20065;-60
2023/08/06 19:00:42;;;;;;;2.95;1.50;;;16.50;81.20;;;;;;5007592;28;19925;-56
2023/08/06 19:03:10;;;;;;;2.42;1.40;;;16.50;81.40;;;;;;5005979;28;20050;-58
2023/08/06 19:05:39;;;;;;;2.92;1.20;;;16.50;81.30;;;;;;5006809;28;20057;-57
2023/08/06 19:08:07;;;;;;;2.83;0.88;;;16.50;80.80;;;;;;5006220;28;20053;-58
2023/08/06 19:10:35;;;;;;;1.50;0.90;;;16.50;80.50;;;;;;5006312;28;20121;-56
2023/08/06 19:13:08;;;;;;;3.65;1.17;;;16.50;80.50;;;;;;5005233;28;20398;-57
2023/08/06 19:15:36;;;;;;;4.95;1.13;;;16.50;80.60;;;;;;5005883;28;20539;-57
2023/08/06 19:18:03;;;;;;;1.50;1.10;;;16.40;80.40;;;;;;5006634;28;20061;-44
2023/08/06 19:20:31;;;;;;;3.25;1.42;;;16.40;80.20;;;;;;5007817;28;20057;-50
2023/08/06 19:23:00;;;;;;;8.35;1.65;;;16.40;80.20;;;;;;5008147;28;20054;-55
2023/08/06 19:25:27;;;;;;;3.58;1.05;;;16.30;79.40;;;;;;5006147;28;20053;-46
2023/08/06 19:27:54;;;;;;;4.57;1.30;;;16.30;79.10;;;;;;5005967;28;20072;-48
2023/08/06 19:30:22;;;;;;;4.65;1.13;;;16.20;78.70;;;;;;5007080;28;20056;-57
2023/08/06 19:32:49;;;;;;;8.15;1.75;;;16.20;79.20;;;;;;5006746;28;20509;-48
2023/08/06 19:35:16;;;;;;;3.72;1.10;;;16.10;79.30;;;;;;5007339;28;20049;-50
2023/08/06 19:37:44;;;;;;;4.32;1.00;;;16.10;79.60;;;;;;5007766;28;20441;-56
2023/08/06 19:40:13;;;;;;;5.10;1.63;;;16.10;80.00;;;;;;5007681;28;20046;-52
2023/08/06 19:42:41;;;;;;;4.22;1.92;;;16.10;80.40;;;;;;5005880;28;20416;-58
2023/08/06 19:45:09;;;;;;;5.05;1.52;;;16.10;80.50;;;;;;5006444;28;20054;-59
2023/08/06 19:47:36;;;;;;;3.72;1.30;;;16.00;80.70;;;;;;5005440;28;20058;-63
2023/08/06 19:50:03;;;;;;;4.68;1.58;;;16.10;80.60;;;;;;5006214;28;20062;-60
2023/08/06 19:52:30;;;;;;;6.82;1.52;;;16.10;80.60;;;;;;5006574;28;20069;-63
2023/08/06 19:54:58;;;;;;;8.02;1.60;;;16.10;80.40;;;;;;5005027;28;20061;-60
2023/08/06 19:57:26;;;;;;;8.10;2.03;;;16.00;79.90;;;;;;5005243;28;20425;-57
2023/08/06 19:59:54;;;;;;;3.38;1.15;;;16.00;80.10;;;;;;5005187;28;20406;-45
2023/08/06 20:02:21;;;;;;;7.95;1.30;;;16.00;80.10;;;;;;5006837;28;20053;-57
2023/08/06 20:04:48;;;;;;;6.65;1.23;;;16.00;80.30;;;;;;5006161;28;20521;-64
2023/08/06 20:07:15;;;;;;;7.15;1.75;;;16.00;80.30;;;;;;5007170;28;20049;-61
2023/08/06 20:09:42;;;;;;;7.57;1.35;;;16.00;80.20;;;;;;5004826;28;20049;-65
2023/08/06 20:12:10;;;;;;;11.07;1.50;;;16.00;80.10;;;;;;5004999;28;20061;-51
2023/08/06 20:14:38;;;;;;;5.88;1.10;;;15.90;80.10;;;;;;5005917;28;20076;-60
2023/08/06 20:17:07;;;;;;;8.30;1.98;;;15.90;80.00;;;;;;5006133;28;20056;-62
2023/08/06 20:19:34;;;;;;;10.20;1.65;;;16.00;80.30;;;;;;5004642;28;20053;-62
2023/08/06 20:22:01;;;;;;;7.57;1.60;;;15.90;80.10;;;;;;5005950;28;20057;-48
2023/08/06 20:24:29;;;;;;;4.35;1.25;;;15.90;80.10;;;;;;5004412;28;20050;-58
2023/08/06 20:26:57;;;;;;;9.88;1.75;;;15.90;80.00;;;;;;5003923;28;21469;-63
2023/08/06 20:29:24;;;;;;;8.55;1.75;;;15.90;80.30;;;;;;5007028;28;20517;-59
2023/08/06 20:31:52;;;;;;;6.72;1.83;;;15.90;80.40;;;;;;5005795;28;20060;-59
2023/08/06 20:34:20;;;;;;;3.58;1.38;;;15.90;80.30;;;;;;5005488;28;20053;-61
2023/08/06 20:36:47;;;;;;;8.70;2.20;;;15.90;80.20;;;;;;5004786;28;20472;-57
2023/08/06 20:39:14;;;;;;;7.80;1.95;;;15.90;80.30;;;;;;5004852;28;20050;-61
2023/08/06 20:41:41;;;;;;;10.48;1.92;;;15.90;80.50;;;;;;5003935;28;20050;-57
2023/08/06 20:44:09;;;;;;;10.98;2.72;;;15.90;80.30;;;;;;5005375;28;20057;-58
2023/08/06 20:46:36;;;;;;;13.07;2.10;;;15.90;80.30;;;;;;5004380;28;20050;-61
2023/08/06 20:49:04;;;;;;;6.70;1.65;;;15.90;79.80;;;;;;5005423;28;20069;-61
2023/08/06 20:51:32;;;;;;;7.40;1.67;;;15.90;80.00;;;;;;5005125;28;20410;-57
2023/08/06 20:53:59;;;;;;;14.43;1.50;;;15.90;80.10;;;;;;5004295;28;20046;-43
2023/08/06 20:56:26;;;;;;;4.95;1.88;;;15.90;80.10;;;;;;5003912;28;20065;-60
2023/08/06 20:58:53;;;;;;;8.73;1.70;;;15.90;80.00;;;;;;5004662;28;20584;-60
2023/08/06 21:01:20;;;;;;;6.95;1.58;;;15.90;79.80;;;;;;5005354;28;20060;-59
2023/08/06 21:03:48;;;;;;;6.78;1.73;;;15.90;79.80;;;;;;5004844;28;20121;-56
2023/08/06 21:06:16;;;;;;;9.48;1.98;;;15.80;80.10;;;;;;5003812;28;20414;-64
2023/08/06 21:08:44;;;;;;;12.88;1.80;;;15.90;80.40;;;;;;5004469;28;21362;-58
2023/08/06 21:11:15;;;;;;;11.73;1.60;;;15.80;80.20;;;;;;5003547;28;20050;-63
2023/08/06 21:13:43;;;;;;;9.10;1.63;;;15.90;80.30;;;;;;5004009;28;20042;-57
2023/08/06 21:16:10;;;;;;;10.40;2.10;;;15.90;80.00;;;;;;5004535;28;20058;-62
2023/08/06 21:18:37;;;;;;;14.93;2.40;;;15.90;80.10;;;;;;5003827;28;20057;-61
2023/08/06 21:21:06;;;;;;;8.60;1.67;;;15.90;79.90;;;;;;5004865;28;20061;-64
2023/08/06 21:23:35;;;;;;;8.35;1.92;;;15.90;79.80;;;;;;5004232;28;20065;-57
2023/08/06 21:26:03;;;;;;;6.95;1.70;;;15.90;79.60;;;;;;5002890;28;20049;-57
2023/08/06 21:28:32;;;;;;;6.75;1.58;;;15.90;79.50;;;;;;5003972;28;20054;-60
2023/08/06 21:31:01;;;;;;;6.72;1.85;;;15.90;79.50;;;;;;5004240;28;20478;-56
2023/08/06 21:33:29;;;;;;;8.52;1.80;;;15.90;79.50;;;;;;5003967;28;20053;-64
2023/08/06 21:36:01;;;;;;;10.18;1.83;;;15.90;79.20;;;;;;5004242;28;20053;-49
2023/08/06 21:38:28;;;;;;;7.13;1.60;;;15.90;79.40;;;;;;5004495;28;20413;-63
2023/08/06 21:41:03;;;;;;;11.43;2.17;;;15.90;79.10;;;;;;5006038;28;20050;-60
2023/08/06 21:43:31;;;;;;;10.48;2.42;;;15.90;79.20;;;;;;5003904;28;20056;-56
2023/08/06 21:46:02;;;;;;;11.88;2.00;;;15.80;79.80;;;;;;5004727;28;20065;-57
2023/08/06 21:48:30;;;;;;;7.53;2.20;;;15.90;79.30;;;;;;5005169;28;20060;-62
2023/08/06 21:51:01;;;;;;;14.60;2.30;;;15.90;79.10;;;;;;5004910;28;20046;-62
2023/08/06 21:53:30;;;;;;;8.27;1.92;;;15.80;79.10;;;;;;5003863;28;20490;-57
2023/08/06 21:56:04;;;;;;;10.18;2.40;;;15.90;79.10;;;;;;5004010;28;20049;-59
2023/08/06 21:58:31;;;;;;;;;;;15.90;79.10;;;;;;5004577;28;20793;-59
2023/08/06 22:00:58;;;;;;;8.48;2.22;;;15.90;78.90;;;;;;5003723;28;20288;-62
2023/08/06 22:03:26;;;;;;;9.57;2.38;;;15.90;77.80;;;;;;5004803;28;20053;-64
2023/08/06 22:05:53;;;;;;;13.00;2.25;;;15.90;77.90;;;;;;5003645;28;20061;-62
2023/08/06 22:08:20;;;;;;;9.25;1.55;;;15.90;77.90;;;;;;5003821;28;20089;-60
2023/08/06 22:10:49;;;;;;;9.60;1.95;;;15.90;78.00;;;;;;5003451;28;20057;-47
2023/08/06 22:13:18;;;;;;;10.07;2.05;;;15.90;77.90;;;;;;5002029;28;20076;-52
2023/08/06 22:15:46;;;;;;;10.95;2.00;;;15.90;78.10;;;;;;5002414;28;20061;-51
2023/08/06 22:18:13;;;;;;;8.32;1.98;;;15.90;77.90;;;;;;5004475;28;20053;-45
2023/08/06 22:20:40;;;;;;;4.32;1.50;;;15.90;77.70;;;;;;5003424;28;20065;-57
2023/08/06 22:23:08;;;;;;;6.03;1.50;;;15.80;77.60;;;;;;5003705;28;20050;-62
2023/08/06 22:25:35;;;;;;;13.15;2.70;;;15.80;77.30;;;;;;5003626;28;20057;-59
2023/08/06 22:28:02;;;;;;;5.07;1.70;;;15.80;76.80;;;;;;5002184;28;20061;-59
2023/08/06 22:30:31;;;;;;;9.23;1.63;;;15.80;77.10;;;;;;5003907;28;20050;-56
2023/08/06 22:32:59;;;;;;;7.47;1.90;;;15.80;77.10;;;;;;5003271;28;20420;-53
2023/08/06 22:35:26;;;;;;;11.50;2.00;;;15.70;76.80;;;;;;5003018;28;20069;-47
2023/08/06 22:37:53;;;;;;;12.45;2.30;;;15.70;77.00;;;;;;5002847;28;20414;-64
2023/08/06 22:40:20;;;;;;;7.22;2.13;;;15.70;76.40;;;;;;5003173;28;20516;-59
2023/08/06 22:42:48;;;;;;;9.40;1.70;;;15.70;76.40;;;;;;5002673;28;20136;-59
2023/08/06 22:45:15;;;;;;;6.95;2.08;;;15.70;76.50;;;;;;5003514;28;20050;-58
2023/08/06 22:47:44;;;;;;;5.93;1.75;;;15.60;76.70;;;;;;5002989;28;20046;-63
2023/08/06 22:50:12;;;;;;;16.23;2.33;;;15.60;76.70;;;;;;5002816;28;20443;-55
2023/08/06 22:52:39;;;;;;;10.65;2.33;;;15.50;76.60;;;;;;5003509;28;20520;-61
2023/08/06 22:55:07;;;;;;;13.85;3.13;;;15.60;76.80;;;;;;5002745;28;20057;-52
2023/08/06 22:57:35;;;;;;;14.77;2.28;;;15.50;76.70;;;;;;5002503;28;20054;-57
2023/08/06 23:00:04;;;;;;;17.77;2.67;;;15.50;76.70;;;;;;5002525;28;20073;-53
2023/08/06 23:02:31;;;;;;;9.90;2.10;;;15.50;77.00;;;;;;5001976;28;20049;-59
2023/08/06 23:05:00;;;;;;;13.27;2.88;;;15.50;77.00;;;;;;5003840;28;20049;-62